South Hills, Pennsylvania
Current Conditions -  °F | °C
As of 1:53 AM on Friday 31 Oct 2014 (Local Time) from KAGC Reporting Station
Overcast Overcast  
Wind Chill: 45°   Ceiling: 4800
Heat Index: 45°   Visibility: 10mi
Dew Point: 34°   Wind: 3mph
Humidity: 65%   Direction: 160°SSE
Pressure: 30"   Gusts: NA
Location:  40.4037°N, 80.0349°W
Report Text: KAGC 310553Z 16003KT 10SM OVC048 07/01 A3000 RMK AO2 SLP168 T00720011 10083 20072 58012
Loading
Personal Weather Stations






























Interactive Weather Map
Tropical Storm Tracking
New forecast layout! Learn more

10-Day Weather Forecast

Advertisements
Track Severe Weather on mobile